Goodell, Iowa
Current Conditions -  °F | °C
As of 12:15 PM on Friday 19 Dec 2014 (Local Time) from KCAV Reporting Station
Haze Haze  
Wind Chill: 21°   Ceiling: 600
Heat Index: 30°   Visibility: 4mi
Dew Point: 30°   Wind: 10mph
Humidity: 100%   Direction: 190°S
Pressure: 30.21"   Gusts: NA
Location:  42.92°N, 93.62°W
Report Text: KCAV 191815Z AUTO 19009KT 4SM BR OVC006 M01/M01 A3021 RMK AO2
Loading
Personal Weather Stations






























Interactive Weather Map New forecast layout! Learn more

10-Day Weather Forecast

Advertisements
Track Severe Weather on mobile